weather station
Area: 10056 km2
The highest point: Plechý (1378 m.s.l.)
Total stations: 29
Stations online: 27
Stations offline: 2
Current weather
14°C

Meteorological map - weather stations in Jihočeský

. The meteorological maps show weather information from WARIO weather stations

Weather stations Jihočeský

 UpdatesNameStatusTemperatureHumidityWind speedWind direction
5.8.2021 10:20Bělčice14.3 °C100.0 %1.0 m/s NW
5.8.2021 10:19Borovany13.8 °C89.7 %0.0 m/s NW
5.8.2021 10:20Třeboň14.6 °C94.2 %0.7 m/s NW
5.8.2021 10:20Litvínovice - Mokré13.4 °C100.0 %1.3 m/s W
5.8.2021 10:19Chrášťovice °C %0.7 m/s SW
5.8.2021 10:19Dubenec13.9 °C99.3 %1.5 m/s NW
5.8.2021 10:20České Budějovice - Haklovy Dvory °C %1.8 m/s W
5.8.2021 10:20Jindřichův Hradec17.6 °C88.1 %0.0 m/s S
5.8.2021 10:19Kadov14.1 °C98.3 %0.0 m/s E
5.8.2021 10:20České Budějovice °C %1.5 m/s SW
5.8.2021 10:19Lipno nad Vltavou9.9 °C100.0 %2.1 m/s S
3.8.2021 13:38Vyšší Brod23.8 °C46.0 %0.0 m/s N
5.8.2021 10:19Jindřichův Hradec13.6 °C86.7 %1.2 m/s SW
5.8.2021 10:20Písek - Vnitřní Město14.1 °C88.9 %0.6 m/s W
5.8.2021 10:20Dolní Vltavice13.0 °C93.4 %2.2 m/s NW
5.8.2021 10:20Hluboká nad Vltavou - Zámostí14.5 °C100.0 %1.4 m/s W
5.8.2021 10:20Hluboká nad Vltavou15.6 °C85.0 %1.1 m/s NE
5.8.2021 10:20Písek - Budějovické Předměstí14.1 °C100.0 %0.9 m/s NW
5.8.2021 10:20Písek - Pražské Předměstí14.6 °C95.2 %0.0 m/s W
5.8.2021 10:19Radošovice14.1 °C86.9 %1.5 m/s NW
5.8.2021 10:19Rataje14.2 °C92.2 %1.0 m/s N
5.8.2021 10:19Roudné14.2 °C95.9 %2.4 m/s N
5.8.2021 10:19Sedlice12.9 °C100.0 %1.8 m/s N
5.8.2021 10:19Sezimovo Ústí14.5 °C86.4 %1.1 m/s NW
5.8.2021 10:19Stachy12.8 °C94.7 %0.0 m/s NE
4.8.2021 07:48Strakonice12.4 °C100.0 %0.0 m/s NW
5.8.2021 10:19Tábor12.9 °C95.5 %1.7 m/s N
5.8.2021 10:19Novosedly °C %0.0 m/s W
5.8.2021 10:20Veselí nad Lužnicí - Žíšov14.9 °C96.3 %0.0 m/s SE
Email notifications
Enter your email address to subscribe to notifications about news at warioweather.com. Your email address will not be used for any purpose other than sending these emails and will not be provided to any third party. The subscription can be ended at any time.
All data are only indicative. The portal administrator has no responsibility for potentially incorrect data and related consequences. Publishing or further sharing of content from www.warioweather.com is only allowed with written consent from WANET s.r.o.